createdAt,value
2022-12-15T00:04:02.504Z,18.65
2022-12-15T00:06:50.046Z,22.15
2022-12-15T00:09:36.679Z,25.83
2022-12-15T00:12:22.577Z,16.95
2022-12-15T00:15:08.327Z,19.92
2022-12-15T00:17:54.382Z,17.30
2022-12-15T00:21:06.528Z,15.70
2022-12-15T00:27:02.159Z,17.33
2022-12-15T00:29:48.245Z,14.25
2022-12-15T00:32:34.282Z,16.67
2022-12-15T00:38:33.617Z,16.63
2022-12-15T00:43:53.711Z,19.95
2022-12-15T00:46:57.039Z,18.25
2022-12-15T00:49:46.455Z,15.75
2022-12-15T00:52:33.989Z,18.40
2022-12-15T00:55:25.757Z,18.85
2022-12-15T00:58:17.890Z,21.13
2022-12-15T01:01:30.392Z,15.30
2022-12-15T01:04:16.571Z,15.48
2022-12-15T01:07:02.471Z,12.32
2022-12-15T01:09:48.319Z,21.23
2022-12-15T01:12:39.291Z,18.52
2022-12-15T01:15:50.718Z,19.38
2022-12-15T01:18:35.995Z,23.42
2022-12-15T01:21:08.800Z,19.35
2022-12-15T01:23:36.402Z,30.70
2022-12-15T01:26:05.568Z,19.00
2022-12-15T01:28:35.005Z,19.20
2022-12-15T01:31:13.574Z,14.50
2022-12-15T01:33:44.378Z,16.80
2022-12-15T01:39:51.672Z,13.88
2022-12-15T01:42:24.766Z,16.20
2022-12-15T01:44:54.190Z,20.80
2022-12-15T01:47:28.288Z,17.48
2022-12-15T01:49:55.728Z,18.30
2022-12-15T01:52:23.715Z,14.50
2022-12-15T02:00:45.830Z,16.15
2022-12-15T02:03:14.306Z,15.57
2022-12-15T02:05:42.304Z,13.27
2022-12-15T02:08:10.941Z,18.05
2022-12-15T02:10:59.265Z,19.17
2022-12-15T02:13:46.139Z,17.73
2022-12-15T02:16:18.768Z,19.30
2022-12-15T02:19:07.240Z,18.40
2022-12-15T02:21:46.731Z,14.73
2022-12-15T02:24:30.928Z,14.07
2022-12-15T02:27:13.085Z,17.08
2022-12-15T02:30:07.804Z,21.10
2022-12-15T02:33:01.350Z,14.95
2022-12-15T02:35:38.295Z,16.48
2022-12-15T02:38:05.734Z,20.85
2022-12-15T02:40:33.708Z,20.40
2022-12-15T02:43:10.451Z,16.58
2022-12-15T02:45:55.907Z,17.25
2022-12-15T02:48:38.225Z,17.80
2022-12-15T02:51:54.760Z,20.88
2022-12-15T02:54:34.522Z,16.48
2022-12-15T02:57:13.220Z,20.70
2022-12-15T03:00:07.274Z,17.98
2022-12-15T03:02:44.734Z,14.93
2022-12-15T03:05:19.617Z,11.80
2022-12-15T03:07:53.348Z,19.58
2022-12-15T03:10:24.411Z,18.25
2022-12-15T03:12:57.368Z,12.05
2022-12-15T03:15:29.047Z,14.55
2022-12-15T03:20:51.857Z,12.45
2022-12-15T03:23:19.949Z,17.63
2022-12-15T03:25:49.684Z,16.67
2022-12-15T03:28:43.702Z,15.27
2022-12-15T03:31:15.793Z,14.88
2022-12-15T03:33:43.705Z,17.25
2022-12-15T03:36:37.783Z,17.05
2022-12-15T03:39:09.694Z,13.95
2022-12-15T03:41:38.011Z,16.90
2022-12-15T03:44:05.983Z,23.13
2022-12-15T03:46:33.832Z,15.77
2022-12-15T03:49:01.733Z,22.20
2022-12-15T03:51:29.674Z,13.27
2022-12-15T03:53:58.876Z,18.27
2022-12-15T03:56:25.920Z,17.27
2022-12-15T03:58:53.714Z,12.93
2022-12-15T04:01:31.884Z,13.85
2022-12-15T04:04:04.722Z,15.18
2022-12-15T04:06:31.732Z,14.88
2022-12-15T04:08:59.731Z,14.40
2022-12-15T04:11:27.687Z,18.60
2022-12-15T04:13:59.703Z,17.02
2022-12-15T04:16:27.711Z,21.58
2022-12-15T04:19:19.286Z,21.85
2022-12-15T04:21:47.760Z,18.80
2022-12-15T04:24:34.245Z,18.25
2022-12-15T04:27:20.298Z,19.27
2022-12-15T04:30:32.712Z,20.27
2022-12-15T04:33:19.014Z,18.52
2022-12-15T04:36:10.365Z,16.25
2022-12-15T04:38:56.347Z,18.42
2022-12-15T04:41:43.273Z,15.10
2022-12-15T04:44:35.831Z,13.30
2022-12-15T04:47:22.685Z,24.08
2022-12-15T04:50:08.472Z,15.82
2022-12-15T04:53:28.875Z,16.27
2022-12-15T04:56:18.633Z,16.65
2022-12-15T04:59:10.024Z,13.60
2022-12-15T05:05:11.040Z,13.15
2022-12-15T05:07:56.036Z,19.20
2022-12-15T05:10:47.458Z,22.38
2022-12-15T05:13:39.347Z,13.40
2022-12-15T05:16:26.464Z,13.02
2022-12-15T05:19:12.652Z,19.27
2022-12-15T05:21:58.479Z,17.90
2022-12-15T05:24:49.304Z,17.77
2022-12-15T05:27:36.214Z,14.88
2022-12-15T05:30:22.630Z,17.58
2022-12-15T05:32:49.884Z,16.23
2022-12-15T05:35:17.736Z,12.82
2022-12-15T05:37:45.704Z,16.63
2022-12-15T05:40:13.826Z,19.02
2022-12-15T05:42:41.752Z,16.15
2022-12-15T05:45:13.816Z,14.32
2022-12-15T05:47:41.683Z,12.98
2022-12-15T05:50:33.698Z,17.50
2022-12-15T05:53:06.801Z,17.65
2022-12-15T05:55:33.697Z,13.38
2022-12-15T05:58:01.743Z,15.90
2022-12-15T06:00:29.670Z,13.68
2022-12-15T06:02:58.208Z,15.63
2022-12-15T06:05:25.924Z,17.80
2022-12-15T06:08:24.894Z,17.70
2022-12-15T06:10:55.053Z,17.67
2022-12-15T06:16:18.974Z,16.08
2022-12-15T06:18:49.924Z,18.35
2022-12-15T06:21:20.260Z,17.98
2022-12-15T06:23:48.056Z,20.05
2022-12-15T06:26:22.941Z,16.50
2022-12-15T06:28:56.102Z,12.30
2022-12-15T06:31:30.297Z,17.15
2022-12-15T06:34:02.119Z,24.98
2022-12-15T06:36:57.888Z,20.58
2022-12-15T06:39:25.736Z,17.10
2022-12-15T06:41:53.737Z,16.90
2022-12-15T06:44:45.673Z,24.38
2022-12-15T06:50:10.027Z,15.73
2022-12-15T06:52:37.683Z,22.38
2022-12-15T06:55:06.223Z,15.80
2022-12-15T06:57:59.832Z,15.13
2022-12-15T07:00:28.024Z,20.55
2022-12-15T07:02:55.883Z,15.77
2022-12-15T07:05:23.715Z,15.95
2022-12-15T07:07:52.346Z,13.35
2022-12-15T07:10:25.716Z,17.20
2022-12-15T07:12:56.209Z,12.95
2022-12-15T07:15:29.246Z,18.20
2022-12-15T07:17:57.750Z,19.60
2022-12-15T07:20:28.919Z,15.50
2022-12-15T07:22:57.736Z,15.43
2022-12-15T07:25:25.740Z,14.65
2022-12-15T07:27:53.693Z,10.85
2022-12-15T07:33:16.803Z,12.60
2022-12-15T07:36:02.302Z,15.55
2022-12-15T07:38:30.112Z,16.13
2022-12-15T07:43:57.015Z,12.65
2022-12-15T07:46:29.949Z,15.00
2022-12-15T07:49:02.849Z,18.13
2022-12-15T07:51:29.741Z,14.10
2022-12-15T07:53:57.717Z,16.25
2022-12-15T07:56:32.211Z,16.85
2022-12-15T07:59:27.678Z,16.27
2022-12-15T08:01:55.811Z,17.75
2022-12-15T08:04:23.670Z,14.75
2022-12-15T08:09:47.653Z,12.10
2022-12-15T08:12:17.078Z,21.67
2022-12-15T08:14:45.173Z,15.02
2022-12-15T08:17:17.782Z,14.32
2022-12-15T08:19:45.752Z,18.63
2022-12-15T08:22:15.152Z,12.55
2022-12-15T08:24:43.877Z,23.13
2022-12-15T08:27:11.706Z,19.23
2022-12-15T08:29:55.328Z,16.73
2022-12-15T08:32:52.762Z,14.45
2022-12-15T08:35:46.855Z,15.43
2022-12-15T08:38:37.460Z,16.10
2022-12-15T08:41:09.715Z,14.95
2022-12-15T08:49:25.801Z,20.45
2022-12-15T08:51:58.834Z,22.48
2022-12-15T08:54:25.862Z,18.88
2022-12-15T08:56:53.693Z,21.15
2022-12-15T08:59:22.332Z,18.08
2022-12-15T09:01:49.818Z,28.83
2022-12-15T09:04:21.809Z,22.90
2022-12-15T09:06:54.710Z,36.60
2022-12-15T09:09:22.281Z,24.10
2022-12-15T09:11:50.082Z,18.38
2022-12-15T09:14:21.584Z,20.52
2022-12-15T09:16:53.827Z,22.52
2022-12-15T09:19:26.706Z,22.38
2022-12-15T09:24:46.498Z,23.85
2022-12-15T09:27:13.725Z,20.70
2022-12-15T09:29:41.843Z,30.55
2022-12-15T09:32:14.118Z,21.17
2022-12-15T09:34:46.994Z,21.83
2022-12-15T09:37:18.772Z,18.63
2022-12-15T09:39:45.775Z,22.55
2022-12-15T09:42:24.784Z,22.23
2022-12-15T09:45:04.801Z,20.83
2022-12-15T09:53:58.805Z,18.25
2022-12-15T09:56:28.848Z,20.65
2022-12-15T09:59:05.676Z,26.08
2022-12-15T10:01:52.726Z,21.85
2022-12-15T10:04:46.268Z,20.23
2022-12-15T10:07:32.166Z,23.30
2022-12-15T10:09:59.739Z,24.60
2022-12-15T10:12:35.648Z,28.13
2022-12-15T10:15:18.883Z,23.00
2022-12-15T10:18:03.969Z,21.70
2022-12-15T10:20:32.988Z,26.08
2022-12-15T10:23:09.495Z,19.80
2022-12-15T10:25:37.864Z,18.73
2022-12-15T10:28:38.262Z,16.95
2022-12-15T10:31:37.524Z,18.08
2022-12-15T10:34:16.853Z,22.67
2022-12-15T10:36:51.003Z,22.20
2022-12-15T10:39:18.009Z,20.50
2022-12-15T10:41:45.705Z,22.70
2022-12-15T10:44:32.023Z,22.90
2022-12-15T10:47:10.088Z,26.83
2022-12-15T10:49:37.987Z,22.80
2022-12-15T10:52:14.255Z,22.80
2022-12-15T10:54:46.010Z,29.05
2022-12-15T10:57:28.542Z,24.08
2022-12-15T11:00:27.764Z,22.73
2022-12-15T11:02:56.259Z,24.20
2022-12-15T11:05:24.502Z,21.80
2022-12-15T11:07:54.548Z,20.40
2022-12-15T11:10:26.676Z,18.08
2022-12-15T11:13:12.868Z,25.50
2022-12-15T11:15:41.173Z,29.30
2022-12-15T11:18:16.578Z,21.80
2022-12-15T11:20:59.577Z,29.42
2022-12-15T11:23:46.593Z,19.13
2022-12-15T11:26:36.409Z,21.60
2022-12-15T11:29:29.957Z,24.83
2022-12-15T11:32:01.523Z,24.77
2022-12-15T11:34:47.474Z,30.85
2022-12-15T11:37:42.155Z,24.10
2022-12-15T11:40:36.613Z,25.58
2022-12-15T11:43:20.111Z,25.50
2022-12-15T11:46:06.001Z,28.13
2022-12-15T11:48:58.483Z,24.88
2022-12-15T11:51:40.411Z,27.65
2022-12-15T11:54:20.177Z,21.98
2022-12-15T11:56:53.511Z,20.08
2022-12-15T11:59:27.751Z,23.67
2022-12-15T12:02:30.404Z,20.85
2022-12-15T12:05:35.798Z,19.50
2022-12-15T12:08:18.681Z,31.05
2022-12-15T12:11:13.060Z,24.33
2022-12-15T12:14:11.687Z,16.90
2022-12-15T12:17:08.877Z,23.38
2022-12-15T12:19:45.819Z,22.50
2022-12-15T12:22:25.860Z,25.35
2022-12-15T12:25:15.583Z,23.65
2022-12-15T12:28:25.641Z,23.80
2022-12-15T12:30:55.998Z,30.10
2022-12-15T12:33:44.750Z,28.27
2022-12-15T12:36:16.021Z,21.35
2022-12-15T12:38:51.214Z,20.30
2022-12-15T12:41:43.378Z,24.73
2022-12-15T12:44:52.122Z,27.10
2022-12-15T12:47:25.023Z,31.25
2022-12-15T12:50:43.545Z,24.42
2022-12-15T12:53:31.618Z,26.77
2022-12-15T12:56:03.962Z,30.15
2022-12-15T12:58:41.383Z,22.27
2022-12-15T13:01:32.581Z,22.08
2022-12-15T13:04:08.849Z,29.67
2022-12-15T13:06:46.742Z,26.65
2022-12-15T13:09:16.911Z,23.80
2022-12-15T13:11:51.095Z,27.05
2022-12-15T13:14:41.244Z,26.83
2022-12-15T13:17:32.157Z,26.90
2022-12-15T13:20:26.472Z,24.70
2022-12-15T13:22:54.813Z,23.40
2022-12-15T13:25:39.079Z,24.95
2022-12-15T13:28:42.608Z,20.08
2022-12-15T13:31:19.096Z,24.35
2022-12-15T13:33:50.618Z,20.33
2022-12-15T13:36:41.620Z,26.50
2022-12-15T13:39:12.838Z,19.77
2022-12-15T13:42:31.640Z,20.27
2022-12-15T13:45:18.086Z,24.95
2022-12-15T13:47:53.580Z,19.65
2022-12-15T13:51:03.777Z,17.13
2022-12-15T13:53:39.408Z,23.60
2022-12-15T13:56:10.876Z,16.65
2022-12-15T13:58:43.213Z,19.08
2022-12-15T14:01:33.940Z,16.85
2022-12-15T14:04:15.348Z,16.10
2022-12-15T14:06:54.639Z,14.73
2022-12-15T14:09:31.258Z,13.68
2022-12-15T14:14:54.020Z,15.52
2022-12-15T14:17:25.704Z,15.07
2022-12-15T14:19:53.751Z,13.70
2022-12-15T14:22:29.422Z,18.02
2022-12-15T14:25:22.085Z,13.32
2022-12-15T14:27:55.813Z,12.40
2022-12-15T14:30:33.199Z,11.55
2022-12-15T14:33:06.960Z,14.85
2022-12-15T14:35:40.724Z,14.07
2022-12-15T14:38:13.032Z,14.60
2022-12-15T14:40:41.395Z,14.25
2022-12-15T14:43:26.870Z,12.80
2022-12-15T14:46:04.962Z,15.35
2022-12-15T14:48:43.517Z,13.57
2022-12-15T14:51:49.712Z,14.30
2022-12-15T14:54:28.061Z,16.42
2022-12-15T14:57:00.822Z,17.10
2022-12-15T14:59:33.598Z,15.77
2022-12-15T15:02:12.765Z,16.60
2022-12-15T15:04:39.872Z,24.80
2022-12-15T15:07:16.958Z,13.10
2022-12-15T15:09:45.867Z,22.67
2022-12-15T15:12:26.804Z,17.65
2022-12-15T15:15:06.188Z,15.23
2022-12-15T15:17:33.637Z,14.30
2022-12-15T15:20:15.820Z,23.60
2022-12-15T15:22:46.109Z,29.17
2022-12-15T15:25:29.168Z,28.05
2022-12-15T15:28:18.988Z,16.70
2022-12-15T15:31:33.917Z,16.67
2022-12-15T15:34:30.541Z,16.50
2022-12-15T15:39:54.981Z,19.13
2022-12-15T15:42:25.487Z,11.02
2022-12-15T15:44:57.750Z,17.33
2022-12-15T15:47:30.596Z,15.18
2022-12-15T15:49:59.678Z,14.43
2022-12-15T15:55:28.743Z,14.35
2022-12-15T15:57:56.246Z,13.38
2022-12-15T16:00:25.650Z,17.17
2022-12-15T16:02:54.583Z,14.43
2022-12-15T16:05:21.727Z,11.70
2022-12-15T16:07:50.247Z,16.30
2022-12-15T16:10:20.410Z,12.50
2022-12-15T16:12:50.694Z,13.73
2022-12-15T16:15:21.327Z,21.67
2022-12-15T16:17:50.144Z,13.20
2022-12-15T16:20:20.086Z,14.65
2022-12-15T16:22:57.182Z,14.60
2022-12-15T16:25:43.809Z,15.05
2022-12-15T16:28:25.713Z,17.02
2022-12-15T16:30:54.197Z,22.48
2022-12-15T16:33:22.082Z,25.45
2022-12-15T16:36:14.935Z,16.83
2022-12-15T16:38:42.818Z,18.65
2022-12-15T16:41:15.058Z,19.73
2022-12-15T16:43:47.724Z,17.05
2022-12-15T16:46:20.994Z,20.15
2022-12-15T16:48:47.783Z,15.73
2022-12-15T16:51:30.767Z,20.77
2022-12-15T16:54:04.087Z,21.83
2022-12-15T16:56:31.851Z,27.55
2022-12-15T16:59:34.330Z,27.88
2022-12-15T17:02:29.180Z,25.02
2022-12-15T17:04:57.747Z,24.15
2022-12-15T17:07:27.810Z,23.02
2022-12-15T17:09:56.642Z,18.98
2022-12-15T17:12:23.769Z,20.45
2022-12-15T17:14:57.489Z,16.25
2022-12-15T17:17:26.527Z,18.08
2022-12-15T17:28:42.843Z,18.83
2022-12-15T17:31:18.337Z,27.77
2022-12-15T17:33:50.713Z,17.42
2022-12-15T17:36:23.866Z,19.92
2022-12-15T17:39:00.558Z,21.83
2022-12-15T17:41:57.999Z,23.30
2022-12-15T17:44:38.942Z,19.33
2022-12-15T17:47:08.567Z,21.38
2022-12-15T17:49:38.717Z,19.98
2022-12-15T17:52:29.328Z,18.15
2022-12-15T17:55:03.147Z,17.30
2022-12-15T17:57:37.029Z,26.88
2022-12-15T18:00:15.691Z,17.95
2022-12-15T18:02:49.063Z,19.63
2022-12-15T18:05:18.795Z,21.75
2022-12-15T18:07:49.930Z,21.00
2022-12-15T18:10:25.470Z,21.63
2022-12-15T18:12:53.848Z,22.35
2022-12-15T18:15:24.900Z,17.90
2022-12-15T18:18:20.843Z,18.85
2022-12-15T18:20:48.538Z,21.23
2022-12-15T18:23:22.728Z,24.42
2022-12-15T18:25:51.076Z,21.63
2022-12-15T18:34:21.166Z,22.52
2022-12-15T18:37:23.883Z,26.40
2022-12-15T18:39:53.238Z,23.77
2022-12-15T18:42:47.216Z,21.20
2022-12-15T18:45:28.276Z,25.20
2022-12-15T18:48:24.515Z,24.00
2022-12-15T18:50:54.460Z,21.88
2022-12-15T18:56:32.720Z,26.05
2022-12-15T19:01:51.841Z,22.38
2022-12-15T19:04:19.699Z,22.02
2022-12-15T19:06:47.835Z,25.10
2022-12-15T19:09:24.036Z,25.27
2022-12-15T19:12:10.383Z,25.13
2022-12-15T19:14:40.598Z,26.83
2022-12-15T19:17:29.350Z,21.45
2022-12-15T19:20:16.268Z,25.58
2022-12-15T19:22:49.131Z,23.48
2022-12-15T19:25:25.793Z,21.67
2022-12-15T19:28:01.015Z,25.77
2022-12-15T19:30:42.181Z,27.00
2022-12-15T19:33:14.044Z,20.00
2022-12-15T19:35:45.659Z,18.27
2022-12-15T19:38:32.942Z,20.45
2022-12-15T19:41:00.203Z,25.77
2022-12-15T19:43:27.813Z,22.90
2022-12-15T19:45:59.744Z,23.92
2022-12-15T19:48:27.729Z,22.88
2022-12-15T19:50:55.863Z,24.15
2022-12-15T19:53:29.327Z,24.70
2022-12-15T19:56:06.323Z,20.55
2022-12-15T19:58:35.291Z,23.02
2022-12-15T20:01:14.738Z,26.23
2022-12-15T20:03:48.589Z,25.55
2022-12-15T20:09:38.706Z,22.23
2022-12-15T20:12:06.247Z,24.25
2022-12-15T20:14:39.688Z,27.58
2022-12-15T20:17:12.905Z,26.48
2022-12-15T20:19:39.923Z,21.20
2022-12-15T20:22:16.166Z,24.83
2022-12-15T20:25:18.841Z,21.73
2022-12-15T20:27:56.919Z,26.65
2022-12-15T20:30:35.351Z,18.67
2022-12-15T20:36:02.819Z,26.30
2022-12-15T20:38:32.657Z,23.20
2022-12-15T20:41:01.487Z,21.27
2022-12-15T20:43:35.277Z,23.05
2022-12-15T20:46:30.467Z,24.83
2022-12-15T20:48:58.067Z,22.08
2022-12-15T20:51:28.530Z,25.23
2022-12-15T20:54:02.863Z,33.25
2022-12-15T20:56:30.205Z,25.60
2022-12-15T20:59:00.230Z,27.30
2022-12-15T21:01:52.927Z,32.30
2022-12-15T21:04:31.968Z,23.90
2022-12-15T21:06:59.700Z,28.63
2022-12-15T21:12:22.201Z,24.60
2022-12-15T21:14:50.922Z,33.05
2022-12-15T21:17:20.206Z,25.33
2022-12-15T21:19:57.744Z,26.35
2022-12-15T21:22:27.580Z,21.25
2022-12-15T21:25:03.252Z,23.10
2022-12-15T21:27:31.736Z,24.45
2022-12-15T21:29:59.725Z,25.10
2022-12-15T21:32:27.716Z,31.00
2022-12-15T21:35:00.104Z,22.60
2022-12-15T21:37:29.217Z,26.17
2022-12-15T21:40:00.513Z,33.63
2022-12-15T21:42:33.784Z,25.10
2022-12-15T21:45:01.816Z,27.08
2022-12-15T21:47:55.911Z,21.17
2022-12-15T21:50:23.917Z,22.00
2022-12-15T21:52:51.752Z,22.15
2022-12-15T21:55:22.428Z,23.30
2022-12-15T21:57:49.837Z,27.52
2022-12-15T22:00:21.277Z,28.83
2022-12-15T22:02:57.108Z,20.73
2022-12-15T22:05:30.328Z,25.90
2022-12-15T22:08:00.388Z,25.48
2022-12-15T22:10:33.725Z,23.00
2022-12-15T22:13:08.067Z,26.90
2022-12-15T22:18:27.689Z,21.33
2022-12-15T22:20:56.225Z,21.15
2022-12-15T22:23:23.707Z,31.52
2022-12-15T22:25:55.065Z,23.95
2022-12-15T22:28:26.533Z,23.88
2022-12-15T22:33:47.719Z,23.55
2022-12-15T22:36:15.794Z,27.65
2022-12-15T22:38:44.843Z,23.60
2022-12-15T22:41:20.608Z,28.13
2022-12-15T22:43:56.199Z,24.35
2022-12-15T22:46:25.087Z,27.15
2022-12-15T22:52:24.857Z,21.05
2022-12-15T22:54:54.181Z,22.42
2022-12-15T22:57:30.790Z,23.88
2022-12-15T23:00:05.671Z,23.73
2022-12-15T23:02:36.985Z,25.45
2022-12-15T23:05:04.915Z,22.23
2022-12-15T23:07:38.799Z,25.63
2022-12-15T23:10:50.554Z,25.65
2022-12-15T23:13:44.074Z,30.55
2022-12-15T23:16:21.777Z,23.50
2022-12-15T23:19:24.382Z,25.83
2022-12-15T23:21:51.971Z,24.08
2022-12-15T23:24:19.770Z,25.33
2022-12-15T23:26:47.879Z,19.40
2022-12-15T23:29:15.954Z,26.08
2022-12-15T23:31:43.689Z,26.40
2022-12-15T23:37:09.795Z,24.65
2022-12-15T23:39:37.669Z,22.40
2022-12-15T23:42:06.202Z,23.55
2022-12-15T23:44:33.724Z,22.60
2022-12-15T23:47:01.881Z,23.60
2022-12-15T23:49:29.996Z,24.02
2022-12-15T23:51:58.132Z,25.48
2022-12-15T23:54:25.907Z,24.13
2022-12-15T23:56:54.073Z,21.13
2022-12-15T23:59:21.710Z,21.08
